createdAt,value
2024-05-09T00:01:49.226Z,102640.44
2024-05-09T00:03:51.064Z,102636.59
2024-05-09T00:05:52.829Z,102642.09
2024-05-09T00:07:54.618Z,102637.53
2024-05-09T00:09:56.255Z,102640.13
2024-05-09T00:11:58.135Z,102642.84
2024-05-09T00:13:59.951Z,102643.34
2024-05-09T00:16:29.039Z,102645.97
2024-05-09T00:18:31.101Z,102639.09
2024-05-09T00:20:38.276Z,102632.09
2024-05-09T00:22:42.488Z,102636.81
2024-05-09T00:24:44.125Z,102640.00
2024-05-09T00:26:45.822Z,102636.66
2024-05-09T00:28:47.531Z,102635.06
2024-05-09T00:30:49.143Z,102642.31
2024-05-09T00:32:51.059Z,102632.00
2024-05-09T00:34:53.027Z,102626.66
2024-05-09T00:36:54.662Z,102623.13
2024-05-09T00:38:56.392Z,102625.09
2024-05-09T00:40:58.112Z,102621.38
2024-05-09T00:43:10.206Z,102624.88
2024-05-09T00:45:12.058Z,102625.34
2024-05-09T00:47:13.805Z,102624.16
2024-05-09T00:49:15.594Z,102619.09
2024-05-09T00:51:17.770Z,102612.84
2024-05-09T00:53:19.691Z,102608.91
2024-05-09T00:55:21.477Z,102602.06
2024-05-09T00:57:24.228Z,102604.63
2024-05-09T00:59:26.953Z,102599.84
2024-05-09T01:01:30.101Z,102599.72
2024-05-09T01:03:31.965Z,102597.00
2024-05-09T01:05:35.069Z,102595.31
2024-05-09T01:07:37.556Z,102592.41
2024-05-09T01:09:39.219Z,102586.50
2024-05-09T01:11:41.211Z,102588.75
2024-05-09T01:13:44.969Z,102593.50
2024-05-09T01:15:48.245Z,102602.25
2024-05-09T01:17:50.164Z,102589.53
2024-05-09T01:19:52.014Z,102596.56
2024-05-09T01:21:53.706Z,102588.22
2024-05-09T01:23:55.446Z,102587.22
2024-05-09T01:25:57.101Z,102588.03
2024-05-09T01:27:59.010Z,102581.00
2024-05-09T01:30:00.778Z,102576.59
2024-05-09T01:32:04.721Z,102579.06
2024-05-09T01:34:06.474Z,102572.19
2024-05-09T01:36:08.446Z,102579.34
2024-05-09T01:38:12.875Z,102569.75
2024-05-09T01:40:18.665Z,102571.19
2024-05-09T01:42:26.492Z,102567.81
2024-05-09T01:44:28.327Z,102563.97
2024-05-09T01:46:30.206Z,102561.09
2024-05-09T01:48:37.346Z,102554.94
2024-05-09T01:50:41.936Z,102567.44
2024-05-09T01:52:44.864Z,102563.59
2024-05-09T01:54:46.522Z,102573.19
2024-05-09T01:56:48.312Z,102571.41
2024-05-09T01:58:49.966Z,102567.94
2024-05-09T02:00:51.685Z,102569.53
2024-05-09T02:02:53.851Z,102566.19
2024-05-09T02:04:55.935Z,102568.50
2024-05-09T02:06:57.607Z,102579.31
2024-05-09T02:08:59.284Z,102581.41
2024-05-09T02:11:01.190Z,102588.94
2024-05-09T02:13:07.714Z,102594.16
2024-05-09T02:15:09.469Z,102591.25
2024-05-09T02:17:11.294Z,102591.31
2024-05-09T02:19:13.266Z,102599.78
2024-05-09T02:21:15.138Z,102591.44
2024-05-09T02:23:17.399Z,102587.00
2024-05-09T02:25:20.939Z,102582.06
2024-05-09T02:27:22.649Z,102578.72
2024-05-09T02:29:24.462Z,102574.78
2024-05-09T02:31:26.214Z,102575.25
2024-05-09T02:33:28.210Z,102575.72
2024-05-09T02:35:30.135Z,102584.38
2024-05-09T02:37:31.870Z,102574.69
2024-05-09T02:39:33.854Z,102563.38
2024-05-09T02:41:35.650Z,102558.56
2024-05-09T02:43:37.392Z,102555.69
2024-05-09T02:45:40.225Z,102557.16
2024-05-09T02:47:42.408Z,102560.44
2024-05-09T02:49:46.574Z,102570.59
2024-05-09T02:51:48.451Z,102568.53
2024-05-09T02:53:50.213Z,102579.84
2024-05-09T02:55:51.910Z,102577.75
2024-05-09T02:57:53.601Z,102565.44
2024-05-09T02:59:55.280Z,102564.19
2024-05-09T03:01:57.034Z,102561.47
2024-05-09T03:03:58.932Z,102559.94
2024-05-09T03:06:01.736Z,102547.78
2024-05-09T03:08:03.698Z,102550.41
2024-05-09T03:10:18.033Z,102547.69
2024-05-09T03:12:24.175Z,102548.63
2024-05-09T03:14:26.064Z,102545.00
2024-05-09T03:16:27.943Z,102541.41
2024-05-09T03:18:29.767Z,102533.59
2024-05-09T03:20:34.851Z,102544.81
2024-05-09T03:22:38.273Z,102541.41
2024-05-09T03:24:39.984Z,102545.94
2024-05-09T03:26:41.764Z,102537.47
2024-05-09T03:28:43.821Z,102537.47
2024-05-09T03:30:45.523Z,102540.66
2024-05-09T03:32:47.296Z,102543.22
2024-05-09T03:34:49.205Z,102537.84
2024-05-09T03:36:50.964Z,102542.66
2024-05-09T03:38:52.674Z,102552.28
2024-05-09T03:40:54.469Z,102547.34
2024-05-09T03:42:56.253Z,102542.06
2024-05-09T03:44:58.018Z,102545.34
2024-05-09T03:46:59.902Z,102551.72
2024-05-09T03:49:01.829Z,102544.31
2024-05-09T03:51:04.063Z,102542.94
2024-05-09T03:53:05.852Z,102549.00
2024-05-09T03:55:07.772Z,102545.28
2024-05-09T03:57:09.427Z,102540.28
2024-05-09T03:59:11.181Z,102544.50
2024-05-09T04:01:12.956Z,102536.94
2024-05-09T04:03:15.061Z,102543.34
2024-05-09T04:05:17.025Z,102543.25
2024-05-09T04:07:18.818Z,102547.78
2024-05-09T04:09:20.522Z,102546.06
2024-05-09T04:11:22.352Z,102546.84
2024-05-09T04:13:24.150Z,102538.25
2024-05-09T04:15:25.841Z,102552.88
2024-05-09T04:17:28.299Z,102549.91
2024-05-09T04:19:30.297Z,102559.38
2024-05-09T04:21:32.090Z,102557.97
2024-05-09T04:23:33.945Z,102549.06
2024-05-09T04:25:35.921Z,102548.94
2024-05-09T04:27:37.623Z,102554.06
2024-05-09T04:29:39.941Z,102558.69
2024-05-09T04:31:41.705Z,102548.06
2024-05-09T04:33:43.753Z,102560.13
2024-05-09T04:35:45.937Z,102559.38
2024-05-09T04:37:47.674Z,102560.75
2024-05-09T04:39:49.421Z,102559.91
2024-05-09T04:41:51.243Z,102557.38
2024-05-09T04:43:52.971Z,102549.50
2024-05-09T04:45:54.689Z,102557.09
2024-05-09T04:47:56.646Z,102552.75
2024-05-09T04:50:00.879Z,102555.75
2024-05-09T04:52:04.685Z,102558.78
2024-05-09T04:54:08.469Z,102559.81
2024-05-09T04:56:12.408Z,102558.78
2024-05-09T04:58:14.323Z,102554.84
2024-05-09T05:00:21.855Z,102557.59
2024-05-09T05:02:32.925Z,102559.19
2024-05-09T05:04:34.789Z,102554.13
2024-05-09T05:06:36.575Z,102557.84
2024-05-09T05:08:38.479Z,102560.09
2024-05-09T05:10:40.813Z,102560.34
2024-05-09T05:12:45.572Z,102558.53
2024-05-09T05:14:47.355Z,102562.72
2024-05-09T05:16:49.133Z,102547.84
2024-05-09T05:18:53.256Z,102549.31
2024-05-09T05:20:55.892Z,102547.50
2024-05-09T05:22:57.833Z,102539.84
2024-05-09T05:24:59.531Z,102543.47
2024-05-09T05:27:01.311Z,102544.28
2024-05-09T05:29:03.115Z,102546.00
2024-05-09T05:31:05.018Z,102548.97
2024-05-09T05:33:09.897Z,102551.78
2024-05-09T05:35:11.768Z,102555.25
2024-05-09T05:37:13.660Z,102553.25
2024-05-09T05:39:15.421Z,102554.25
2024-05-09T05:41:17.240Z,102555.94
2024-05-09T05:43:19.341Z,102554.97
2024-05-09T05:45:21.296Z,102560.28
2024-05-09T05:47:25.004Z,102554.59
2024-05-09T05:49:29.587Z,102558.06
2024-05-09T05:51:31.499Z,102558.44
2024-05-09T05:53:33.581Z,102552.50
2024-05-09T05:55:35.876Z,102553.81
2024-05-09T05:57:37.741Z,102550.53
2024-05-09T05:59:39.469Z,102556.69
2024-05-09T06:01:41.285Z,102555.88
2024-05-09T06:03:43.360Z,102560.34
2024-05-09T06:05:46.948Z,102558.78
2024-05-09T06:07:49.035Z,102557.97
2024-05-09T06:09:50.895Z,102553.84
2024-05-09T06:11:52.772Z,102560.91
2024-05-09T06:13:54.680Z,102555.38
2024-05-09T06:15:56.657Z,102550.19
2024-05-09T06:17:59.034Z,102546.91
2024-05-09T06:20:01.148Z,102548.72
2024-05-09T06:22:03.854Z,102543.63
2024-05-09T06:24:06.735Z,102550.78
2024-05-09T06:26:08.742Z,102553.47
2024-05-09T06:28:13.967Z,102549.31
2024-05-09T06:30:25.683Z,102546.78
2024-05-09T06:32:32.797Z,102555.56
2024-05-09T06:34:34.887Z,102555.72
2024-05-09T06:36:39.024Z,102557.53
2024-05-09T06:38:40.997Z,102551.63
2024-05-09T06:40:44.121Z,102560.31
2024-05-09T06:42:46.598Z,102557.09
2024-05-09T06:44:48.482Z,102558.09
2024-05-09T06:46:50.382Z,102553.59
2024-05-09T06:48:53.045Z,102549.28
2024-05-09T06:50:55.435Z,102553.72
2024-05-09T06:52:57.400Z,102553.38
2024-05-09T06:54:59.417Z,102549.75
2024-05-09T06:57:01.368Z,102546.44
2024-05-09T06:59:03.643Z,102543.28
2024-05-09T07:01:05.710Z,102548.09
2024-05-09T07:03:08.574Z,102534.16
2024-05-09T07:05:10.738Z,102534.75
2024-05-09T07:07:12.909Z,102535.75
2024-05-09T07:09:14.758Z,102528.25
2024-05-09T07:11:16.828Z,102529.34
2024-05-09T07:13:18.954Z,102532.94
2024-05-09T07:15:20.943Z,102531.91
2024-05-09T07:17:23.054Z,102532.47
2024-05-09T07:19:25.155Z,102529.09
2024-05-09T07:21:27.057Z,102525.72
2024-05-09T07:23:29.267Z,102521.34
2024-05-09T07:25:31.481Z,102533.47
2024-05-09T07:27:34.664Z,102530.00
2024-05-09T07:29:38.679Z,102528.25
2024-05-09T07:31:41.189Z,102528.50
2024-05-09T07:33:43.536Z,102521.84
2024-05-09T07:35:45.744Z,102526.00
2024-05-09T07:37:48.422Z,102521.72
2024-05-09T07:39:51.286Z,102516.69
2024-05-09T07:41:54.128Z,102519.47
2024-05-09T07:43:56.633Z,102519.84
2024-05-09T07:46:23.059Z,102524.47
2024-05-09T07:53:33.066Z,102521.81
2024-05-09T07:54:55.861Z,102514.31
2024-05-09T07:56:58.312Z,102517.78
2024-05-09T07:59:00.716Z,102525.38
2024-05-09T08:01:03.457Z,102525.53
2024-05-09T08:03:06.171Z,102514.53
2024-05-09T08:05:08.399Z,102515.47
2024-05-09T08:07:10.704Z,102513.75
2024-05-09T08:09:16.926Z,102513.44
2024-05-09T08:11:24.207Z,102512.69
2024-05-09T08:13:28.730Z,102517.88
2024-05-09T08:15:31.241Z,102511.22
2024-05-09T08:17:34.011Z,102504.50
2024-05-09T08:19:37.941Z,102504.59
2024-05-09T08:21:40.037Z,102505.00
2024-05-09T08:23:42.323Z,102504.16
2024-05-09T08:25:44.866Z,102510.19
2024-05-09T08:27:47.046Z,102506.16
2024-05-09T08:29:49.460Z,102501.03
2024-05-09T08:31:56.198Z,102505.59
2024-05-09T08:33:58.831Z,102505.81
2024-05-09T08:36:01.195Z,102504.25
2024-05-09T08:38:04.657Z,102506.25
2024-05-09T08:40:11.178Z,102492.69
2024-05-09T08:42:18.924Z,102500.69
2024-05-09T08:44:21.678Z,102500.03
2024-05-09T08:46:24.656Z,102493.19
2024-05-09T08:48:27.078Z,102499.19
2024-05-09T08:50:36.430Z,102498.41
2024-05-09T08:52:41.574Z,102491.59
2024-05-09T08:54:46.300Z,102496.28
2024-05-09T08:56:48.617Z,102490.50
2024-05-09T08:58:52.336Z,102481.13
2024-05-09T09:00:55.221Z,102485.41
2024-05-09T09:02:57.623Z,102487.34
2024-05-09T09:05:05.782Z,102480.63
2024-05-09T09:07:08.280Z,102481.00
2024-05-09T09:09:10.650Z,102476.75
2024-05-09T09:11:12.825Z,102480.47
2024-05-09T09:13:15.768Z,102483.00
2024-05-09T09:15:18.527Z,102484.97
2024-05-09T09:17:20.885Z,102485.09
2024-05-09T09:19:23.796Z,102488.84
2024-05-09T09:21:26.084Z,102482.97
2024-05-09T09:23:30.379Z,102469.88
2024-05-09T09:25:33.050Z,102468.44
2024-05-09T09:27:35.336Z,102465.00
2024-05-09T09:29:39.730Z,102472.06
2024-05-09T09:31:42.366Z,102472.19
2024-05-09T09:33:45.544Z,102469.06
2024-05-09T09:35:47.656Z,102466.75
2024-05-09T09:37:50.919Z,102459.06
2024-05-09T09:39:53.450Z,102460.84
2024-05-09T09:41:56.790Z,102456.72
2024-05-09T09:43:58.994Z,102461.28
2024-05-09T09:46:02.322Z,102450.81
2024-05-09T09:48:05.385Z,102454.47
2024-05-09T09:50:14.193Z,102456.31
2024-05-09T09:52:18.975Z,102458.97
2024-05-09T09:54:24.092Z,102453.00
2024-05-09T09:56:26.565Z,102457.44
2024-05-09T09:58:29.648Z,102448.06
2024-05-09T10:00:33.890Z,102445.59
2024-05-09T10:02:36.227Z,102444.03
2024-05-09T10:04:38.820Z,102451.16
2024-05-09T10:06:43.201Z,102451.38
2024-05-09T10:08:46.994Z,102447.16
2024-05-09T10:10:49.234Z,102450.75
2024-05-09T10:12:57.158Z,102447.25
2024-05-09T10:14:59.346Z,102442.22
2024-05-09T10:17:04.393Z,102444.00
2024-05-09T10:19:06.662Z,102444.13
2024-05-09T10:21:11.991Z,102438.19
2024-05-09T10:23:17.144Z,102437.31
2024-05-09T10:25:19.701Z,102432.16
2024-05-09T10:27:25.043Z,102435.72
2024-05-09T10:29:27.174Z,102431.47
2024-05-09T10:31:29.843Z,102421.84
2024-05-09T10:33:35.026Z,102426.31
2024-05-09T10:35:37.174Z,102429.88
2024-05-09T10:37:39.763Z,102426.41
2024-05-09T10:39:42.274Z,102422.09
2024-05-09T10:41:44.201Z,102420.38
2024-05-09T10:43:47.571Z,102423.03
2024-05-09T10:45:49.783Z,102416.97
2024-05-09T10:47:52.243Z,102411.75
2024-05-09T10:49:54.559Z,102410.00
2024-05-09T10:51:56.541Z,102408.31
2024-05-09T10:53:59.537Z,102398.72
2024-05-09T10:56:01.996Z,102394.38
2024-05-09T10:58:04.119Z,102390.00
2024-05-09T11:00:10.174Z,102385.66
2024-05-09T11:02:16.378Z,102391.78
2024-05-09T11:04:21.196Z,102388.28
2024-05-09T11:06:23.799Z,102378.66
2024-05-09T11:08:26.083Z,102376.03
2024-05-09T11:10:33.728Z,102376.00
2024-05-09T11:12:36.965Z,102370.78
2024-05-09T11:14:39.631Z,102381.19
2024-05-09T11:16:41.888Z,102376.78
2024-05-09T11:18:44.538Z,102375.84
2024-05-09T11:20:46.997Z,102370.56
2024-05-09T11:22:49.588Z,102367.88
2024-05-09T11:24:53.309Z,102369.59
2024-05-09T11:26:57.197Z,102374.84
2024-05-09T11:28:59.403Z,102369.56
2024-05-09T11:31:05.511Z,102362.47
2024-05-09T11:33:11.316Z,102367.56
2024-05-09T11:35:14.127Z,102361.34
2024-05-09T11:37:16.235Z,102366.53
2024-05-09T11:39:18.873Z,102370.81
2024-05-09T11:41:20.921Z,102364.59
2024-05-09T11:43:23.019Z,102354.09
2024-05-09T11:45:25.857Z,102348.84
2024-05-09T11:47:28.014Z,102349.50
2024-05-09T11:49:30.322Z,102354.72
2024-05-09T11:51:32.664Z,102340.63
2024-05-09T11:55:38.524Z,102341.47
2024-05-09T11:57:40.865Z,102349.47
2024-05-09T11:59:43.769Z,102342.28
2024-05-09T12:01:46.641Z,102339.56
2024-05-09T12:03:50.257Z,102335.88
2024-05-09T12:05:55.821Z,102331.38
2024-05-09T12:07:58.376Z,102336.53
2024-05-09T12:10:00.829Z,102325.19
2024-05-09T12:12:03.507Z,102318.25
2024-05-09T12:14:05.774Z,102318.03
2024-05-09T12:16:09.082Z,102325.78
2024-05-09T12:18:11.450Z,102313.47
2024-05-09T12:20:21.446Z,102313.66
2024-05-09T12:22:30.748Z,102309.25
2024-05-09T12:24:32.817Z,102316.41
2024-05-09T12:26:35.034Z,102314.56
2024-05-09T12:28:37.377Z,102313.66
2024-05-09T12:30:41.037Z,102308.19
2024-05-09T12:32:46.312Z,102306.25
2024-05-09T12:34:49.004Z,102302.03
2024-05-09T12:36:51.174Z,102298.28
2024-05-09T12:38:54.530Z,102300.16
2024-05-09T12:40:57.727Z,102304.41
2024-05-09T12:42:59.918Z,102297.44
2024-05-09T12:45:01.901Z,102298.28
2024-05-09T12:47:06.178Z,102292.25
2024-05-09T12:49:10.918Z,102292.09
2024-05-09T12:51:12.992Z,102283.13
2024-05-09T12:53:16.244Z,102284.91
2024-05-09T12:55:19.851Z,102280.44
2024-05-09T12:57:22.394Z,102280.75
2024-05-09T12:59:24.477Z,102275.59
2024-05-09T13:01:26.910Z,102283.72
2024-05-09T13:03:29.266Z,102273.19
2024-05-09T13:05:32.508Z,102270.50
2024-05-09T13:07:34.548Z,102273.28
2024-05-09T13:09:36.700Z,102271.25
2024-05-09T13:11:43.347Z,102257.91
2024-05-09T13:13:45.338Z,102254.88
2024-05-09T13:15:47.794Z,102258.97
2024-05-09T13:17:50.342Z,102255.06
2024-05-09T13:19:52.509Z,102247.66
2024-05-09T13:21:54.953Z,102251.63
2024-05-09T13:23:59.253Z,102252.06
2024-05-09T13:26:02.682Z,102243.72
2024-05-09T13:28:05.252Z,102245.31
2024-05-09T13:30:11.902Z,102236.56
2024-05-09T13:32:17.105Z,102240.31
2024-05-09T13:34:19.530Z,102239.78
2024-05-09T13:36:22.500Z,102240.88
2024-05-09T13:38:24.921Z,102239.22
2024-05-09T13:40:33.005Z,102233.19
2024-05-09T13:42:37.952Z,102232.44
2024-05-09T13:44:40.246Z,102229.88
2024-05-09T13:46:44.766Z,102236.09
2024-05-09T13:48:46.995Z,102235.09
2024-05-09T13:50:49.342Z,102234.50
2024-05-09T13:52:51.773Z,102222.31
2024-05-09T13:54:54.000Z,102217.78
2024-05-09T13:56:58.587Z,102214.00
2024-05-09T13:59:00.781Z,102216.00
2024-05-09T14:01:03.175Z,102207.84
2024-05-09T14:03:05.661Z,102212.03
2024-05-09T14:05:08.265Z,102202.59
2024-05-09T14:07:11.635Z,102209.13
2024-05-09T14:09:14.156Z,102199.75
2024-05-09T14:11:16.217Z,102189.72
2024-05-09T14:13:18.496Z,102197.38
2024-05-09T14:15:20.659Z,102188.31
2024-05-09T14:17:22.969Z,102187.69
2024-05-09T14:19:25.579Z,102190.00
2024-05-09T14:21:27.985Z,102179.19
2024-05-09T14:23:32.437Z,102177.69
2024-05-09T14:25:39.891Z,102173.44
2024-05-09T14:27:44.009Z,102174.03
2024-05-09T14:29:46.276Z,102173.34
2024-05-09T14:31:48.447Z,102164.78
2024-05-09T14:33:51.052Z,102172.56
2024-05-09T14:35:53.802Z,102163.75
2024-05-09T14:37:56.015Z,102162.75
2024-05-09T14:39:58.749Z,102163.06
2024-05-09T14:42:01.078Z,102157.63
2024-05-09T14:44:03.136Z,102153.63
2024-05-09T14:46:05.478Z,102156.09
2024-05-09T14:48:08.032Z,102147.03
2024-05-09T14:50:16.800Z,102146.50
2024-05-09T14:52:25.839Z,102150.00
2024-05-09T14:54:27.862Z,102145.84
2024-05-09T14:56:33.273Z,102137.59
2024-05-09T14:58:36.033Z,102134.41
2024-05-09T15:00:46.383Z,102134.47
2024-05-09T15:02:52.275Z,102134.28
2024-05-09T15:04:54.889Z,102128.97
2024-05-09T15:06:57.418Z,102130.38
2024-05-09T15:09:00.146Z,102122.72
2024-05-09T15:11:02.702Z,102121.53
2024-05-09T15:13:05.838Z,102118.34
2024-05-09T15:15:09.418Z,102115.69
2024-05-09T15:17:11.584Z,102113.75
2024-05-09T15:19:14.267Z,102102.09
2024-05-09T15:21:16.701Z,102113.22
2024-05-09T15:23:19.059Z,102108.34
2024-05-09T15:25:22.386Z,102099.75
2024-05-09T15:27:24.697Z,102101.91
2024-05-09T15:29:26.839Z,102104.19
2024-05-09T15:31:29.909Z,102099.91
2024-05-09T15:33:33.030Z,102100.28
2024-05-09T15:37:37.595Z,102096.34
2024-05-09T15:39:39.906Z,102103.34
2024-05-09T15:41:42.129Z,102089.97
2024-05-09T15:43:44.602Z,102103.44
2024-05-09T15:45:47.490Z,102094.38
2024-05-09T15:47:50.055Z,102094.69
2024-05-09T15:49:52.530Z,102098.19
2024-05-09T15:51:55.086Z,102092.78
2024-05-09T15:53:57.259Z,102097.66
2024-05-09T15:55:59.661Z,102097.56
2024-05-09T15:58:02.916Z,102093.31
2024-05-09T16:00:09.830Z,102093.59
2024-05-09T16:02:14.575Z,102090.91
2024-05-09T16:04:17.122Z,102093.00
2024-05-09T16:06:19.526Z,102096.84
2024-05-09T16:08:23.079Z,102089.84
2024-05-09T16:10:32.152Z,102088.47
2024-05-09T16:12:36.279Z,102093.84
2024-05-09T16:14:38.650Z,102092.63
2024-05-09T16:16:41.237Z,102092.75
2024-05-09T16:18:43.573Z,102091.41
2024-05-09T16:20:49.412Z,102088.84
2024-05-09T16:22:53.478Z,102083.00
2024-05-09T16:24:56.679Z,102083.94
2024-05-09T16:26:59.154Z,102086.91
2024-05-09T16:29:01.539Z,102087.13
2024-05-09T16:33:12.461Z,102089.44
2024-05-09T16:35:16.925Z,102085.97
2024-05-09T16:37:19.412Z,102076.50
2024-05-09T16:39:21.587Z,102074.09
2024-05-09T16:41:23.792Z,102077.66
2024-05-09T16:43:26.354Z,102072.47
2024-05-09T16:45:28.870Z,102074.28
2024-05-09T16:47:31.719Z,102065.56
2024-05-09T16:49:34.740Z,102068.31
2024-05-09T16:51:38.238Z,102067.50
2024-05-09T16:53:40.949Z,102070.31
2024-05-09T16:55:43.092Z,102065.94
2024-05-09T16:57:45.392Z,102066.91
2024-05-09T16:59:48.110Z,102064.31
2024-05-09T17:01:52.551Z,102067.06
2024-05-09T17:03:55.006Z,102065.38
2024-05-09T17:05:58.132Z,102069.06
2024-05-09T17:08:01.442Z,102062.94
2024-05-09T17:10:08.245Z,102061.34
2024-05-09T17:12:10.940Z,102062.34
2024-05-09T17:14:13.731Z,102055.31
2024-05-09T17:16:19.225Z,102063.28
2024-05-09T17:18:22.408Z,102051.00
2024-05-09T17:20:32.201Z,102058.94
2024-05-09T17:22:37.857Z,102054.59
2024-05-09T17:24:42.148Z,102053.78
2024-05-09T17:26:44.786Z,102054.72
2024-05-09T17:28:48.053Z,102054.72
2024-05-09T17:30:50.467Z,102049.53
2024-05-09T17:32:53.440Z,102052.19
2024-05-09T17:34:56.039Z,102053.13
2024-05-09T17:36:58.784Z,102052.19
2024-05-09T17:39:00.986Z,102058.31
2024-05-09T17:41:03.319Z,102048.72
2024-05-09T17:43:07.675Z,102051.38
2024-05-09T17:45:15.642Z,102054.06
2024-05-09T17:47:17.795Z,102053.19
2024-05-09T17:49:20.182Z,102053.25
2024-05-09T17:51:22.988Z,102052.38
2024-05-09T17:53:41.131Z,102045.34
2024-05-09T17:55:43.590Z,102047.16
2024-05-09T17:57:46.007Z,102053.31
2024-05-09T17:59:50.542Z,102051.56
2024-05-09T18:01:52.816Z,102054.09
2024-05-09T18:03:55.534Z,102044.53
2024-05-09T18:05:57.838Z,102046.25
2024-05-09T18:08:00.257Z,102051.53
2024-05-09T18:10:06.081Z,102048.91
2024-05-09T18:12:09.859Z,102053.19
2024-05-09T18:14:12.029Z,102057.56
2024-05-09T18:16:15.028Z,102046.13
2024-05-09T18:18:18.109Z,102056.59
2024-05-09T18:20:31.916Z,102059.19
2024-05-09T18:22:42.169Z,102053.06
2024-05-09T18:24:44.495Z,102055.69
2024-05-09T18:26:46.435Z,102060.00
2024-05-09T18:28:48.577Z,102057.31
2024-05-09T18:30:50.728Z,102054.72
2024-05-09T18:32:53.035Z,102064.38
2024-05-09T18:34:55.205Z,102072.31
2024-05-09T18:36:57.514Z,102063.56
2024-05-09T18:39:01.726Z,102066.25
2024-05-09T18:41:04.506Z,102061.06
2024-05-09T18:43:08.591Z,102068.06
2024-05-09T18:45:11.339Z,102068.97
2024-05-09T18:47:15.350Z,102068.09
2024-05-09T18:49:19.192Z,102065.50
2024-05-09T18:51:21.488Z,102075.25
2024-05-09T18:53:23.553Z,102071.75
2024-05-09T18:55:25.608Z,102077.91
2024-05-09T18:57:27.454Z,102076.28
2024-05-09T18:59:31.571Z,102076.25
2024-05-09T19:01:33.827Z,102085.94
2024-05-09T19:03:36.376Z,102080.03
2024-05-09T19:05:38.930Z,102082.72
2024-05-09T19:07:43.665Z,102087.94
2024-05-09T19:09:45.769Z,102087.22
2024-05-09T19:11:47.597Z,102085.56
2024-05-09T19:13:49.742Z,102088.25
2024-05-09T19:15:51.826Z,102096.19
2024-05-09T19:17:53.803Z,102089.28
2024-05-09T19:19:58.182Z,102098.19
2024-05-09T19:22:00.150Z,102101.75
2024-05-09T19:24:02.165Z,102102.75
2024-05-09T19:26:04.407Z,102112.50
2024-05-09T19:28:06.704Z,102111.66
2024-05-09T19:30:17.447Z,102108.22
2024-05-09T19:32:26.479Z,102114.44
2024-05-09T19:34:28.506Z,102111.03
2024-05-09T19:36:30.579Z,102114.59
2024-05-09T19:38:32.560Z,102114.63
2024-05-09T19:40:35.649Z,102119.94
2024-05-09T19:42:37.991Z,102119.13
2024-05-09T19:44:39.982Z,102123.47
2024-05-09T19:46:43.804Z,102123.53
2024-05-09T19:48:46.047Z,102120.94
2024-05-09T19:50:51.579Z,102125.34
2024-05-09T19:52:55.114Z,102129.75
2024-05-09T19:54:57.053Z,102133.25
2024-05-09T19:56:59.099Z,102128.88
2024-05-09T19:59:01.019Z,102130.66
2024-05-09T20:01:03.308Z,102128.00
2024-05-09T20:03:05.680Z,102129.78
2024-05-09T20:05:08.029Z,102136.75
2024-05-09T20:07:10.301Z,102134.16
2024-05-09T20:09:12.196Z,102139.41
2024-05-09T20:11:14.844Z,102144.63
2024-05-09T20:13:16.812Z,102146.38
2024-05-09T20:15:18.764Z,102151.63
2024-05-09T20:17:20.582Z,102142.88
2024-05-09T20:19:22.547Z,102148.13
2024-05-09T20:21:24.879Z,102146.38
2024-05-09T20:23:27.317Z,102151.59
2024-05-09T20:25:29.123Z,102147.25
2024-05-09T20:27:31.247Z,102152.44
2024-05-09T20:29:33.282Z,102152.44
2024-05-09T20:31:35.120Z,102158.53
2024-05-09T20:33:38.049Z,102155.03
2024-05-09T20:35:40.130Z,102158.50
2024-05-09T20:37:41.978Z,102161.97
2024-05-09T20:39:43.830Z,102166.34
2024-05-09T20:41:45.721Z,102166.34
2024-05-09T20:43:47.727Z,102168.06
2024-05-09T20:45:49.778Z,102177.63
2024-05-09T20:47:51.824Z,102175.88
2024-05-09T20:49:53.797Z,102175.88
2024-05-09T20:51:55.786Z,102168.88
2024-05-09T20:53:57.687Z,102173.28
2024-05-09T20:55:59.448Z,102175.84
2024-05-09T20:58:01.408Z,102170.66
2024-05-09T21:00:05.764Z,102167.19
2024-05-09T21:02:11.431Z,102168.91
2024-05-09T21:04:13.929Z,102170.63
2024-05-09T21:06:16.442Z,102168.00
2024-05-09T21:08:18.313Z,102177.59
2024-05-09T21:10:22.898Z,102174.06
2024-05-09T21:12:25.344Z,102173.19
2024-05-09T21:14:27.214Z,102171.41
2024-05-09T21:16:29.130Z,102174.03
2024-05-09T21:18:33.313Z,102171.34
2024-05-09T21:20:35.525Z,102169.53
2024-05-09T21:22:38.058Z,102176.53
2024-05-09T21:24:39.892Z,102174.81
2024-05-09T21:26:41.763Z,102171.41
2024-05-09T21:28:43.603Z,102171.41
2024-05-09T21:30:45.562Z,102171.41
2024-05-09T21:32:47.675Z,102173.94
2024-05-09T21:34:49.607Z,102174.81
2024-05-09T21:36:51.574Z,102172.13
2024-05-09T21:38:53.472Z,102174.75
2024-05-09T21:40:55.608Z,102179.09
2024-05-09T21:42:57.497Z,102172.94
2024-05-09T21:44:59.320Z,102179.88
2024-05-09T21:47:01.246Z,102175.56
2024-05-09T21:49:05.604Z,102173.84
2024-05-09T21:51:13.466Z,102178.13
2024-05-09T21:53:15.474Z,102181.66
2024-05-09T21:55:17.252Z,102182.47
2024-05-09T21:57:19.127Z,102179.94
2024-05-09T21:59:21.124Z,102176.38
2024-05-09T22:01:25.061Z,102185.91
2024-05-09T22:03:29.807Z,102179.78
2024-05-09T22:05:31.905Z,102179.88
2024-05-09T22:07:33.898Z,102194.59
2024-05-09T22:09:35.894Z,102191.13
2024-05-09T22:11:37.836Z,102192.84
2024-05-09T22:13:39.702Z,102183.22
2024-05-09T22:15:42.062Z,102189.31
2024-05-09T22:17:44.167Z,102195.41
2024-05-09T22:19:46.398Z,102187.56
2024-05-09T22:21:49.324Z,102188.38
2024-05-09T22:23:52.627Z,102184.06
2024-05-09T22:25:54.453Z,102179.66
2024-05-09T22:27:56.227Z,102184.00
2024-05-09T22:29:58.049Z,102186.47
2024-05-09T22:31:59.950Z,102183.06
2024-05-09T22:34:01.823Z,102187.41
2024-05-09T22:36:03.764Z,102177.03
2024-05-09T22:38:05.888Z,102178.75
2024-05-09T22:40:10.705Z,102179.59
2024-05-09T22:42:14.276Z,102177.84
2024-05-09T22:44:16.119Z,102177.84
2024-05-09T22:46:17.939Z,102185.66
2024-05-09T22:48:20.160Z,102184.78
2024-05-09T22:50:26.834Z,102183.81
2024-05-09T22:52:32.567Z,102180.41
2024-05-09T22:54:34.385Z,102178.56
2024-05-09T22:56:36.151Z,102179.34
2024-05-09T22:58:37.895Z,102181.94
2024-05-09T23:00:40.116Z,102180.22
2024-05-09T23:02:42.120Z,102175.88
2024-05-09T23:04:44.084Z,102180.22
2024-05-09T23:06:45.862Z,102180.25
2024-05-09T23:08:49.846Z,102171.53
2024-05-09T23:10:51.633Z,102179.34
2024-05-09T23:12:53.480Z,102181.06
2024-05-09T23:14:57.645Z,102175.84
2024-05-09T23:16:59.446Z,102173.19
2024-05-09T23:19:01.333Z,102165.38
2024-05-09T23:21:03.338Z,102167.00
2024-05-09T23:23:05.666Z,102172.19
2024-05-09T23:25:07.763Z,102172.09
2024-05-09T23:27:09.593Z,102167.69
2024-05-09T23:29:11.361Z,102165.88
2024-05-09T23:31:13.250Z,102165.81
2024-05-09T23:33:15.171Z,102167.53
2024-05-09T23:35:16.961Z,102172.72